Terminal Aerodrome Forecast
Issued by NWS

Home | Current Version | Previous Version | Text Only | Print | Product List | Glossary On
Versions: 1 2 3 4 5 6 7 8 9 10 11 12 13 14 15 16 17 18 19 20
000
FTUS46 KHNX 251139
TAFMCE
TAF
KMCE 251139Z 2512/2612 13006KT 1SM BR VV002
      TEMPO 2512/2516 1/4SM FG VV001
     FM252000 VRB03KT 2SM BR BKN006
     FM252200 VRB04KT 4SM BR SCT006=

USA.gov is the U.S. government's official web portal to all federal, state and local government web resources and services.